createdAt,value
2017-07-19T00:01:58.138Z,44.60
2017-07-19T00:04:25.620Z,44.80
2017-07-19T00:06:53.102Z,44.00
2017-07-19T00:09:20.586Z,44.90
2017-07-19T00:11:48.069Z,44.40
2017-07-19T00:14:15.550Z,44.60
2017-07-19T00:16:43.046Z,44.30
2017-07-19T00:19:10.527Z,43.90
2017-07-19T00:21:38.768Z,44.50
2017-07-19T00:24:06.261Z,44.40
2017-07-19T00:26:34.514Z,44.40
2017-07-19T00:29:01.999Z,44.30
2017-07-19T00:31:30.279Z,44.20
2017-07-19T00:33:58.526Z,43.90
2017-07-19T00:36:26.009Z,43.80
2017-07-19T00:38:54.267Z,44.70
2017-07-19T00:41:21.751Z,44.30
2017-07-19T00:43:49.999Z,43.50
2017-07-19T00:46:17.485Z,43.50
2017-07-19T00:48:45.735Z,45.30
2017-07-19T00:51:13.221Z,44.70
2017-07-19T00:53:41.465Z,44.70
2017-07-19T00:56:08.952Z,44.50
2017-07-19T00:58:37.197Z,44.60
2017-07-19T01:01:04.691Z,44.50
2017-07-19T01:03:32.950Z,44.90
2017-07-19T01:06:00.430Z,44.80
2017-07-19T01:08:27.931Z,44.30
2017-07-19T01:10:55.414Z,44.90
2017-07-19T01:13:22.890Z,44.50
2017-07-19T01:15:50.364Z,44.50
2017-07-19T01:18:18.615Z,44.60
2017-07-19T01:20:46.106Z,44.50
2017-07-19T01:23:13.603Z,44.40
2017-07-19T01:25:41.103Z,44.80
2017-07-19T01:28:08.715Z,44.30
2017-07-19T01:30:36.212Z,44.50
2017-07-19T01:33:03.682Z,45.50
2017-07-19T01:35:31.163Z,45.20
2017-07-19T01:37:59.475Z,45.60
2017-07-19T01:40:26.966Z,45.60
2017-07-19T01:42:54.448Z,45.20
2017-07-19T01:45:22.715Z,44.80
2017-07-19T01:47:50.188Z,44.80
2017-07-19T01:50:18.429Z,44.20
2017-07-19T01:52:45.921Z,44.00
2017-07-19T01:55:14.162Z,44.60
2017-07-19T01:57:41.676Z,44.50
2017-07-19T02:00:09.187Z,44.70
2017-07-19T02:02:36.673Z,44.50
2017-07-19T02:05:04.919Z,44.00
2017-07-19T02:07:32.431Z,43.60
2017-07-19T02:09:59.910Z,44.20
2017-07-19T02:12:27.403Z,44.60
2017-07-19T02:14:54.886Z,43.90
2017-07-19T02:17:23.139Z,44.60
2017-07-19T02:19:50.623Z,44.10
2017-07-19T02:22:18.891Z,43.90
2017-07-19T02:24:47.140Z,44.40
2017-07-19T02:27:14.677Z,44.30
2017-07-19T02:29:42.161Z,44.00
2017-07-19T02:32:16.951Z,44.00
2017-07-19T02:34:44.444Z,43.90
2017-07-19T02:37:11.922Z,44.40
2017-07-19T02:39:39.399Z,44.20
2017-07-19T02:42:07.653Z,43.00
2017-07-19T02:44:35.129Z,43.00
2017-07-19T02:47:02.607Z,42.90
2017-07-19T02:49:30.097Z,44.00
2017-07-19T02:51:57.577Z,43.60
2017-07-19T02:54:25.073Z,43.70
2017-07-19T02:56:53.339Z,44.70
2017-07-19T02:59:20.818Z,44.70
2017-07-19T03:01:49.063Z,44.70
2017-07-19T03:04:16.563Z,44.60
2017-07-19T03:06:44.043Z,43.50
2017-07-19T03:09:11.532Z,44.10
2017-07-19T03:11:39.028Z,44.40
2017-07-19T03:14:07.280Z,46.30
2017-07-19T03:16:34.749Z,46.20
2017-07-19T03:19:02.243Z,45.80
2017-07-19T03:21:29.735Z,45.60
2017-07-19T03:23:57.211Z,45.10
2017-07-19T03:26:24.706Z,44.00
2017-07-19T03:28:52.178Z,45.50
2017-07-19T03:31:19.672Z,46.60
2017-07-19T03:33:47.175Z,45.70
2017-07-19T03:36:15.419Z,45.90
2017-07-19T03:38:42.904Z,45.80
2017-07-19T03:41:11.171Z,46.80
2017-07-19T03:43:38.646Z,46.10
2017-07-19T03:46:06.890Z,46.90
2017-07-19T03:48:34.382Z,46.80
2017-07-19T03:51:02.628Z,47.50
2017-07-19T03:53:30.117Z,47.40
2017-07-19T03:55:57.618Z,47.80
2017-07-19T03:58:25.098Z,48.60
2017-07-19T04:00:52.630Z,48.30
2017-07-19T04:03:20.125Z,48.40
2017-07-19T04:05:47.609Z,48.30
2017-07-19T04:08:15.862Z,48.50
2017-07-19T04:10:43.358Z,48.30
2017-07-19T04:13:10.824Z,48.00
2017-07-19T04:15:38.309Z,47.40
2017-07-19T04:18:05.807Z,49.10
2017-07-19T04:20:33.281Z,47.80
2017-07-19T04:23:01.534Z,46.10
2017-07-19T04:25:29.024Z,46.10
2017-07-19T04:27:57.261Z,45.10
2017-07-19T04:30:24.734Z,45.10
2017-07-19T04:32:52.218Z,45.80
2017-07-19T04:35:20.453Z,46.90
2017-07-19T04:37:47.985Z,46.90
2017-07-19T04:40:15.480Z,47.70
2017-07-19T04:42:42.950Z,47.00
2017-07-19T04:45:10.434Z,46.30
2017-07-19T04:47:37.922Z,47.00
2017-07-19T04:50:05.396Z,46.40
2017-07-19T04:52:32.879Z,46.20
2017-07-19T04:55:00.379Z,47.00
2017-07-19T04:57:27.859Z,47.40
2017-07-19T04:59:55.333Z,46.50
2017-07-19T05:02:22.832Z,47.00
2017-07-19T05:04:51.074Z,46.20
2017-07-19T05:07:18.558Z,46.10
2017-07-19T05:09:46.055Z,45.80
2017-07-19T05:12:13.538Z,45.50
2017-07-19T05:14:41.022Z,46.30
2017-07-19T05:17:08.507Z,45.60
2017-07-19T05:19:36.769Z,46.50
2017-07-19T05:22:04.253Z,46.50
2017-07-19T05:24:32.509Z,47.20
2017-07-19T05:26:59.995Z,47.10
2017-07-19T05:29:27.475Z,47.10
2017-07-19T05:31:54.973Z,46.90
2017-07-19T05:34:22.445Z,46.40
2017-07-19T05:36:49.924Z,46.40
2017-07-19T05:39:17.414Z,46.30
2017-07-19T05:41:44.894Z,45.50
2017-07-19T05:44:12.387Z,45.80
2017-07-19T05:46:40.655Z,46.10
2017-07-19T05:49:08.135Z,45.60
2017-07-19T05:51:36.378Z,45.40
2017-07-19T05:54:03.897Z,45.40
2017-07-19T05:56:31.403Z,45.80
2017-07-19T05:58:58.881Z,45.70
2017-07-19T06:01:27.146Z,45.20
2017-07-19T06:03:54.614Z,45.20
2017-07-19T06:06:22.865Z,45.00
2017-07-19T06:08:50.359Z,44.90
2017-07-19T06:11:18.612Z,45.40
2017-07-19T06:13:46.094Z,45.20
2017-07-19T06:16:13.585Z,45.10
2017-07-19T06:18:41.068Z,45.50
2017-07-19T06:21:08.551Z,44.80
2017-07-19T06:23:36.047Z,45.30
2017-07-19T06:26:03.521Z,45.50
2017-07-19T06:28:31.016Z,45.20
2017-07-19T06:30:58.510Z,45.10
2017-07-19T06:33:25.986Z,45.10
2017-07-19T06:35:53.467Z,44.90
2017-07-19T06:38:20.954Z,44.90
2017-07-19T06:40:48.426Z,44.90
2017-07-19T06:43:15.911Z,44.40
2017-07-19T06:45:43.409Z,44.10
2017-07-19T06:48:10.887Z,44.20
2017-07-19T06:50:38.388Z,44.20
2017-07-19T06:53:05.915Z,44.10
2017-07-19T06:55:33.393Z,43.50
2017-07-19T06:58:01.643Z,44.80
2017-07-19T07:00:30.010Z,44.70
2017-07-19T07:02:57.490Z,44.60
2017-07-19T07:05:24.970Z,44.60
2017-07-19T07:07:52.461Z,44.50
2017-07-19T07:10:19.945Z,43.50
2017-07-19T07:12:47.431Z,43.70
2017-07-19T07:15:15.718Z,44.50
2017-07-19T07:17:43.963Z,44.10
2017-07-19T07:20:11.436Z,44.00
2017-07-19T07:22:38.930Z,44.20
2017-07-19T07:25:06.405Z,43.30
2017-07-19T07:27:33.880Z,43.50
2017-07-19T07:30:01.365Z,43.70
2017-07-19T07:32:28.849Z,43.70
2017-07-19T07:34:57.106Z,43.60
2017-07-19T07:37:24.612Z,43.50
2017-07-19T07:39:52.085Z,43.90
2017-07-19T07:42:19.569Z,43.80
2017-07-19T07:44:47.062Z,43.20
2017-07-19T07:47:14.544Z,42.70
2017-07-19T07:49:42.031Z,42.70
2017-07-19T07:52:09.534Z,42.90
2017-07-19T07:54:37.788Z,43.00
2017-07-19T07:57:05.282Z,42.90
2017-07-19T07:59:32.775Z,43.30
2017-07-19T08:02:00.272Z,43.10
2017-07-19T08:04:27.747Z,43.30
2017-07-19T08:06:56.009Z,42.80
2017-07-19T08:09:23.492Z,42.80
2017-07-19T08:11:50.970Z,43.20
2017-07-19T08:14:18.460Z,42.20
2017-07-19T08:16:45.947Z,41.20
2017-07-19T08:19:13.428Z,40.70
2017-07-19T08:21:40.920Z,42.50
2017-07-19T08:24:08.477Z,42.40
2017-07-19T08:26:35.962Z,42.10
2017-07-19T08:29:03.455Z,41.30
2017-07-19T08:31:30.942Z,41.20
2017-07-19T08:33:58.425Z,41.20
2017-07-19T08:36:25.971Z,41.00
2017-07-19T08:38:53.452Z,40.40
2017-07-19T08:41:20.946Z,40.30
2017-07-19T08:43:49.205Z,40.50
2017-07-19T08:46:16.685Z,40.40
2017-07-19T08:48:44.938Z,39.70
2017-07-19T08:51:12.446Z,38.90
2017-07-19T08:53:39.920Z,38.20
2017-07-19T08:56:07.403Z,37.70
2017-07-19T08:58:34.896Z,38.80
2017-07-19T09:01:03.137Z,41.10
2017-07-19T09:03:30.609Z,40.40
2017-07-19T09:05:58.105Z,40.90
2017-07-19T09:08:25.583Z,40.90
2017-07-19T09:10:53.070Z,39.50
2017-07-19T09:13:20.562Z,40.20
2017-07-19T09:15:48.818Z,39.80
2017-07-19T09:18:16.476Z,39.70
2017-07-19T09:20:44.116Z,38.90
2017-07-19T09:23:11.627Z,37.90
2017-07-19T09:25:39.138Z,37.50
2017-07-19T09:28:06.624Z,38.30
2017-07-19T09:30:34.109Z,37.10
2017-07-19T09:33:01.589Z,36.60
2017-07-19T09:35:29.101Z,37.00
2017-07-19T09:37:56.589Z,33.00
2017-07-19T09:40:24.076Z,30.80
2017-07-19T09:42:51.575Z,29.50
2017-07-19T09:45:19.064Z,27.70
2017-07-19T09:47:46.547Z,27.30
2017-07-19T09:50:14.062Z,26.50
2017-07-19T09:52:41.542Z,26.60
2017-07-19T09:55:09.799Z,26.50
2017-07-19T09:57:37.312Z,26.50
2017-07-19T10:00:04.791Z,26.10
2017-07-19T10:02:32.337Z,25.90
2017-07-19T10:04:59.838Z,26.40
2017-07-19T10:07:27.339Z,26.80
2017-07-19T10:09:54.839Z,27.30
2017-07-19T10:12:22.347Z,28.30
2017-07-19T10:14:49.843Z,29.30
2017-07-19T10:17:17.322Z,30.60
2017-07-19T10:19:44.836Z,30.70
2017-07-19T10:22:12.318Z,31.90
2017-07-19T10:24:39.811Z,32.80
2017-07-19T10:27:07.314Z,32.40
2017-07-19T10:29:34.802Z,32.40
2017-07-19T10:32:02.291Z,32.10
2017-07-19T10:34:29.804Z,32.70
2017-07-19T10:36:57.286Z,33.10
2017-07-19T10:39:24.776Z,33.20
2017-07-19T10:41:52.277Z,33.10
2017-07-19T10:44:19.749Z,33.40
2017-07-19T10:46:47.234Z,33.40
2017-07-19T10:49:14.740Z,33.40
2017-07-19T10:51:42.226Z,33.50
2017-07-19T10:54:09.723Z,33.40
2017-07-19T10:56:37.226Z,33.20
2017-07-19T10:59:04.710Z,33.40
2017-07-19T11:01:32.184Z,34.00
2017-07-19T11:03:59.682Z,33.70
2017-07-19T11:06:27.928Z,33.40
2017-07-19T11:08:55.416Z,33.30
2017-07-19T11:11:23.680Z,33.70
2017-07-19T11:13:51.154Z,33.70
2017-07-19T11:16:19.462Z,33.70
2017-07-19T11:18:46.954Z,33.60
2017-07-19T11:21:14.448Z,33.80
2017-07-19T11:23:42.702Z,33.70
2017-07-19T11:26:10.221Z,33.70
2017-07-19T11:28:37.712Z,33.90
2017-07-19T11:31:05.197Z,34.00
2017-07-19T11:33:33.471Z,33.60
2017-07-19T11:36:01.721Z,33.80
2017-07-19T11:38:29.223Z,33.70
2017-07-19T11:40:56.742Z,33.70
2017-07-19T11:43:24.229Z,33.40
2017-07-19T11:45:52.483Z,32.90
2017-07-19T11:48:19.990Z,32.80
2017-07-19T11:50:47.487Z,33.40
2017-07-19T11:53:14.967Z,33.60
2017-07-19T11:55:43.259Z,32.50
2017-07-19T11:58:11.501Z,33.40
2017-07-19T12:00:38.979Z,33.30
2017-07-19T12:03:06.489Z,33.50
2017-07-19T12:05:33.968Z,33.50
2017-07-19T12:08:01.447Z,33.80
2017-07-19T12:10:28.974Z,33.80
2017-07-19T12:12:56.453Z,33.60
2017-07-19T12:15:23.933Z,33.80
2017-07-19T12:17:51.417Z,34.30
2017-07-19T12:20:19.678Z,33.40
2017-07-19T12:22:48.003Z,33.70
2017-07-19T12:25:15.486Z,33.60
2017-07-19T12:27:42.967Z,33.60
2017-07-19T12:30:10.446Z,33.50
2017-07-19T12:32:38.718Z,33.40
2017-07-19T12:35:06.965Z,33.80
2017-07-19T12:37:34.436Z,33.80
2017-07-19T12:40:01.929Z,33.70
2017-07-19T12:42:29.409Z,33.90
2017-07-19T12:44:56.890Z,33.60
2017-07-19T12:47:24.378Z,33.40
2017-07-19T12:49:51.862Z,33.20
2017-07-19T12:52:19.446Z,33.20
2017-07-19T12:54:46.932Z,33.40
2017-07-19T12:57:14.422Z,33.40
2017-07-19T12:59:42.665Z,33.10
2017-07-19T13:02:10.154Z,33.10
2017-07-19T13:04:37.655Z,33.10
2017-07-19T13:07:05.142Z,33.40
2017-07-19T13:09:32.630Z,33.50
2017-07-19T13:12:00.110Z,33.40
2017-07-19T13:14:27.595Z,33.60
2017-07-19T13:16:55.094Z,33.70
2017-07-19T13:19:22.586Z,33.60
2017-07-19T13:21:50.070Z,34.40
2017-07-19T13:24:17.575Z,33.70
2017-07-19T13:26:45.090Z,33.30
2017-07-19T13:29:12.571Z,33.50
2017-07-19T13:31:40.110Z,33.30
2017-07-19T13:34:07.598Z,33.50
2017-07-19T13:36:35.070Z,33.50
2017-07-19T13:39:02.573Z,32.90
2017-07-19T13:41:30.055Z,33.10
2017-07-19T13:43:57.534Z,33.20
2017-07-19T13:46:25.039Z,33.20
2017-07-19T13:48:52.530Z,33.30
2017-07-19T13:51:20.015Z,33.50
2017-07-19T13:53:47.510Z,33.30
2017-07-19T13:56:15.750Z,33.30
2017-07-19T13:58:43.231Z,33.20
2017-07-19T14:01:11.494Z,33.10
2017-07-19T14:03:38.977Z,33.10
2017-07-19T14:06:07.218Z,33.90
2017-07-19T14:08:34.710Z,33.10
2017-07-19T14:11:02.959Z,33.40
2017-07-19T14:13:30.429Z,33.40
2017-07-19T14:15:57.927Z,33.40
2017-07-19T14:18:25.411Z,33.30
2017-07-19T14:20:52.894Z,33.50
2017-07-19T14:23:20.394Z,33.30
2017-07-19T14:25:47.978Z,33.50
2017-07-19T14:28:15.467Z,33.40
2017-07-19T14:30:42.956Z,33.80
2017-07-19T14:33:11.219Z,33.90
2017-07-19T14:35:38.706Z,33.90
2017-07-19T14:38:06.203Z,33.80
2017-07-19T14:40:33.682Z,33.80
2017-07-19T14:43:01.152Z,33.90
2017-07-19T14:45:28.651Z,34.20
2017-07-19T14:47:56.151Z,33.80
2017-07-19T14:50:23.644Z,33.70
2017-07-19T14:52:51.902Z,33.90
2017-07-19T14:55:19.446Z,33.90
2017-07-19T14:57:46.923Z,33.80
2017-07-19T15:00:14.511Z,34.20
2017-07-19T15:02:42.823Z,34.10
2017-07-19T15:05:10.306Z,34.10
2017-07-19T15:07:37.820Z,34.30
2017-07-19T15:10:05.307Z,34.40
2017-07-19T15:12:32.781Z,34.60
2017-07-19T15:15:00.317Z,34.70
2017-07-19T15:17:27.798Z,34.60
2017-07-19T15:19:55.273Z,34.60
2017-07-19T15:22:22.768Z,34.50
2017-07-19T15:24:50.244Z,34.80
2017-07-19T15:27:17.722Z,34.80
2017-07-19T15:29:45.214Z,34.10
2017-07-19T15:32:12.755Z,34.00
2017-07-19T15:34:40.238Z,34.20
2017-07-19T15:37:07.734Z,34.40
2017-07-19T15:39:35.223Z,34.20
2017-07-19T15:42:02.703Z,34.60
2017-07-19T15:44:30.200Z,34.90
2017-07-19T15:46:57.720Z,34.80
2017-07-19T15:49:25.245Z,34.70
2017-07-19T15:51:52.733Z,34.40
2017-07-19T15:54:20.267Z,34.40
2017-07-19T15:56:47.750Z,34.50
2017-07-19T15:59:15.255Z,34.70
2017-07-19T16:01:43.500Z,34.60
2017-07-19T16:04:10.992Z,34.60
2017-07-19T16:06:38.484Z,34.30
2017-07-19T16:09:05.967Z,34.50
2017-07-19T16:11:33.455Z,34.60
2017-07-19T16:14:01.735Z,34.60
2017-07-19T16:16:29.988Z,34.20
2017-07-19T16:18:57.471Z,34.10
2017-07-19T16:21:25.730Z,34.70
2017-07-19T16:23:53.220Z,34.60
2017-07-19T16:26:21.467Z,34.90
2017-07-19T16:28:49.742Z,35.10
2017-07-19T16:31:17.219Z,35.00
2017-07-19T16:33:45.473Z,38.80
2017-07-19T16:36:12.973Z,38.80
2017-07-19T16:38:40.458Z,40.20
2017-07-19T16:41:07.929Z,40.20
2017-07-19T16:43:35.430Z,40.30
2017-07-19T16:46:03.678Z,41.90
2017-07-19T16:48:31.163Z,42.40
2017-07-19T16:50:59.441Z,42.10
2017-07-19T16:53:26.943Z,42.10
2017-07-19T16:55:54.502Z,42.40
2017-07-19T16:58:22.064Z,42.80
2017-07-19T17:00:49.545Z,43.90
2017-07-19T17:03:17.038Z,43.70
2017-07-19T17:05:45.300Z,44.30
2017-07-19T17:08:12.791Z,44.20
2017-07-19T17:10:40.273Z,45.20
2017-07-19T17:13:07.768Z,44.90
2017-07-19T17:15:35.260Z,46.30
2017-07-19T17:18:03.509Z,45.60
2017-07-19T17:20:31.194Z,45.50
2017-07-19T17:22:59.512Z,45.90
2017-07-19T17:25:27.000Z,45.80
2017-07-19T17:27:54.522Z,45.70
2017-07-19T17:30:22.015Z,45.90
2017-07-19T17:32:49.507Z,46.00
2017-07-19T17:35:17.787Z,46.40
2017-07-19T17:37:46.026Z,46.60
2017-07-19T17:40:13.509Z,46.50
2017-07-19T17:42:41.015Z,46.80
2017-07-19T17:45:08.501Z,46.50
2017-07-19T17:47:35.982Z,47.00
2017-07-19T17:50:03.474Z,46.80
2017-07-19T17:52:31.713Z,47.10
2017-07-19T17:54:59.208Z,47.00
2017-07-19T17:57:26.715Z,47.40
2017-07-19T17:59:54.198Z,46.80
2017-07-19T18:02:21.710Z,47.00
2017-07-19T18:04:49.640Z,46.90
2017-07-19T18:07:17.898Z,46.70
2017-07-19T18:09:45.398Z,46.70
2017-07-19T18:12:12.903Z,46.60
2017-07-19T18:14:40.385Z,46.30
2017-07-19T18:17:07.898Z,46.30
2017-07-19T18:19:35.394Z,46.20
2017-07-19T18:22:02.885Z,45.80
2017-07-19T18:24:30.370Z,45.90
2017-07-19T18:26:58.009Z,45.80
2017-07-19T18:29:25.497Z,45.60
2017-07-19T18:31:52.979Z,45.50
2017-07-19T18:34:20.478Z,45.40
2017-07-19T18:36:48.726Z,45.40
2017-07-19T18:39:16.223Z,45.30
2017-07-19T18:41:43.745Z,45.20
2017-07-19T18:44:11.239Z,45.20
2017-07-19T18:46:38.731Z,45.00
2017-07-19T18:49:06.249Z,44.80
2017-07-19T18:51:34.492Z,44.60
2017-07-19T18:54:02.020Z,44.60
2017-07-19T18:56:29.518Z,44.50
2017-07-19T18:58:57.016Z,44.50
2017-07-19T19:01:24.504Z,44.50
2017-07-19T19:03:52.696Z,44.60
2017-07-19T19:06:21.735Z,44.70
2017-07-19T19:08:50.303Z,44.60
2017-07-19T19:11:18.452Z,44.50
2017-07-19T19:13:46.365Z,44.30
2017-07-19T19:16:15.575Z,43.70
2017-07-19T19:18:43.741Z,43.60
2017-07-19T19:21:12.286Z,43.40
2017-07-19T19:23:40.540Z,43.40
2017-07-19T19:26:09.093Z,43.50
2017-07-19T19:28:38.046Z,43.60
2017-07-19T19:31:06.730Z,43.70
2017-07-19T19:33:35.082Z,43.80
2017-07-19T19:36:02.870Z,44.10
2017-07-19T19:38:30.362Z,44.00
2017-07-19T19:40:57.883Z,44.10
2017-07-19T19:43:25.378Z,44.90
2017-07-19T19:45:52.851Z,44.90
2017-07-19T19:48:20.360Z,45.10
2017-07-19T19:50:47.842Z,45.00
2017-07-19T19:53:15.318Z,44.90
2017-07-19T19:55:43.586Z,45.00
2017-07-19T19:58:11.099Z,45.00
2017-07-19T20:00:38.570Z,45.50
2017-07-19T20:03:06.078Z,45.80
2017-07-19T20:05:34.326Z,45.90
2017-07-19T20:08:01.837Z,45.80
2017-07-19T20:10:29.359Z,46.30
2017-07-19T20:12:57.597Z,46.50
2017-07-19T20:15:25.079Z,46.20
2017-07-19T20:17:52.561Z,46.30
2017-07-19T20:20:20.056Z,46.30
2017-07-19T20:22:47.539Z,46.10
2017-07-19T20:25:15.042Z,45.50
2017-07-19T20:27:43.319Z,44.30
2017-07-19T20:30:11.591Z,44.20
2017-07-19T20:32:39.097Z,44.10
2017-07-19T20:35:06.579Z,43.90
2017-07-19T20:37:34.072Z,43.00
2017-07-19T20:40:02.345Z,42.40
2017-07-19T20:42:29.836Z,42.30
2017-07-19T20:44:57.322Z,41.80
2017-07-19T20:47:24.826Z,42.10
2017-07-19T20:49:52.655Z,41.40
2017-07-19T20:52:20.932Z,41.30
2017-07-19T20:54:48.771Z,41.30
2017-07-19T20:57:16.882Z,40.70
2017-07-19T20:59:44.787Z,40.40
2017-07-19T21:02:13.009Z,39.60
2017-07-19T21:04:42.762Z,41.10
2017-07-19T21:07:11.176Z,41.10
2017-07-19T21:09:39.070Z,40.80
2017-07-19T21:12:06.880Z,40.40
2017-07-19T21:14:35.038Z,38.50
2017-07-19T21:17:02.749Z,34.60
2017-07-19T21:19:32.104Z,37.50
2017-07-19T21:22:01.523Z,37.40
2017-07-19T21:24:30.295Z,34.80
2017-07-19T21:26:58.974Z,34.80
2017-07-19T21:29:26.495Z,37.20
2017-07-19T21:31:54.650Z,39.90
2017-07-19T21:34:23.905Z,39.80
2017-07-19T21:36:51.453Z,39.80
2017-07-19T21:39:19.627Z,41.10
2017-07-19T21:41:47.675Z,41.40
2017-07-19T21:44:15.491Z,41.00
2017-07-19T21:46:43.349Z,37.90
2017-07-19T21:49:11.693Z,40.00
2017-07-19T21:51:39.740Z,39.50
2017-07-19T21:54:07.836Z,39.60
2017-07-19T21:56:35.322Z,40.80
2017-07-19T21:59:02.825Z,37.60
2017-07-19T22:01:31.117Z,40.80
2017-07-19T22:03:58.619Z,40.60
2017-07-19T22:06:26.102Z,40.00
2017-07-19T22:08:53.604Z,37.70
2017-07-19T22:11:21.107Z,40.60
2017-07-19T22:13:48.695Z,40.30
2017-07-19T22:16:16.203Z,38.60
2017-07-19T22:18:43.692Z,40.00
2017-07-19T22:21:11.193Z,40.00
2017-07-19T22:23:38.872Z,39.40
2017-07-19T22:26:07.299Z,36.40
2017-07-19T22:28:34.776Z,36.30
2017-07-19T22:31:03.034Z,36.90
2017-07-19T22:33:30.534Z,36.90
2017-07-19T22:35:58.017Z,40.90
2017-07-19T22:38:25.513Z,41.10
2017-07-19T22:40:53.003Z,41.10
2017-07-19T22:43:21.435Z,39.70
2017-07-19T22:45:49.099Z,41.40
2017-07-19T22:48:16.660Z,39.20
2017-07-19T22:50:44.295Z,41.60
2017-07-19T22:53:12.607Z,39.70
2017-07-19T22:55:40.357Z,39.70
2017-07-19T22:58:07.850Z,41.30
2017-07-19T23:00:36.115Z,40.20
2017-07-19T23:03:03.871Z,40.70
2017-07-19T23:05:31.518Z,41.60
2017-07-19T23:07:59.165Z,40.20
2017-07-19T23:10:26.888Z,42.00
2017-07-19T23:12:54.489Z,41.20
2017-07-19T23:15:22.022Z,41.40
2017-07-19T23:17:49.511Z,40.00
2017-07-19T23:20:16.994Z,40.60
2017-07-19T23:22:44.486Z,42.30
2017-07-19T23:25:11.968Z,41.80
2017-07-19T23:27:39.461Z,40.00
2017-07-19T23:30:06.956Z,40.30
2017-07-19T23:32:34.447Z,41.60
2017-07-19T23:35:01.930Z,42.00
2017-07-19T23:37:29.427Z,39.80
2017-07-19T23:39:56.909Z,40.30
2017-07-19T23:42:24.397Z,39.80
2017-07-19T23:44:51.906Z,41.70
2017-07-19T23:47:19.376Z,41.90
2017-07-19T23:49:46.854Z,40.30
2017-07-19T23:52:14.372Z,42.60
2017-07-19T23:54:41.851Z,41.50
2017-07-19T23:57:09.336Z,42.20
2017-07-19T23:59:36.826Z,43.40
